Wolverhampton, United Kingdom
Current Conditions -  °F | °C
As of 2:20 PM on Friday 31 Oct 2014 (Local Time) from EGBB Reporting Station
Clear Clear  
Wind Chill: 68°   Ceiling: Unl
Heat Index: 68°   Visibility: 6mi
Dew Point: 55°   Wind: 12mph
Humidity: 64%   Direction: 160°SSE
Pressure: 29.88"   Gusts: NA
Location:  52.59°N, 2.13°W
Report Text: EGBB 311420Z 16010KT CAVOK 20/13 Q1012
Loading
Personal Weather Stations






























Interactive Weather Map
Tropical Storm Tracking
New forecast layout! Learn more

10-Day Weather Forecast

Advertisements
Track Severe Weather on mobile